sensor_id;sensor_type;location;lat;lon;timestamp;temperature;humidity
27534;DHT22;14973;51.460;7.008;2022-09-09T00:00:22;15.40;99.90
27534;DHT22;14973;51.460;7.008;2022-09-09T00:07:48;15.50;99.90
27534;DHT22;14973;51.460;7.008;2022-09-09T00:10:17;15.50;99.90
27534;DHT22;14973;51.460;7.008;2022-09-09T00:15:17;15.50;99.90
27534;DHT22;14973;51.460;7.008;2022-09-09T00:17:50;15.50;99.90
27534;DHT22;14973;51.460;7.008;2022-09-09T00:20:32;15.50;99.90
27534;DHT22;14973;51.460;7.008;2022-09-09T00:23:01;15.50;99.90
27534;DHT22;14973;51.460;7.008;2022-09-09T00:25:34;15.60;99.90
27534;DHT22;14973;51.460;7.008;2022-09-09T00:28:02;15.50;99.90
27534;DHT22;14973;51.460;7.008;2022-09-09T00:30:31;15.40;99.90
27534;DHT22;14973;51.460;7.008;2022-09-09T00:33:16;15.40;99.90
27534;DHT22;14973;51.460;7.008;2022-09-09T00:36:17;15.30;99.90
27534;DHT22;14973;51.460;7.008;2022-09-09T00:38:39;15.30;99.90
27534;DHT22;14973;51.460;7.008;2022-09-09T00:43:36;15.30;99.90
27534;DHT22;14973;51.460;7.008;2022-09-09T00:48:40;15.20;99.90
27534;DHT22;14973;51.460;7.008;2022-09-09T00:54:22;15.20;99.90
27534;DHT22;14973;51.460;7.008;2022-09-09T00:56:37;15.30;99.90
27534;DHT22;14973;51.460;7.008;2022-09-09T01:01:35;15.40;99.90
27534;DHT22;14973;51.460;7.008;2022-09-09T01:04:01;15.50;99.90
27534;DHT22;14973;51.460;7.008;2022-09-09T01:06:34;15.60;99.90
27534;DHT22;14973;51.460;7.008;2022-09-09T01:20:23;15.80;99.90
27534;DHT22;14973;51.460;7.008;2022-09-09T01:23:11;15.90;99.90
27534;DHT22;14973;51.460;7.008;2022-09-09T01:28:22;15.80;99.90
27534;DHT22;14973;51.460;7.008;2022-09-09T01:30:50;15.80;99.90
27534;DHT22;14973;51.460;7.008;2022-09-09T01:33:16;15.80;99.90
27534;DHT22;14973;51.460;7.008;2022-09-09T01:35:48;15.80;99.90
27534;DHT22;14973;51.460;7.008;2022-09-09T01:38:13;15.80;99.90
27534;DHT22;14973;51.460;7.008;2022-09-09T01:40:39;15.80;99.90
27534;DHT22;14973;51.460;7.008;2022-09-09T01:43:05;15.80;99.90
27534;DHT22;14973;51.460;7.008;2022-09-09T01:45:31;16.00;99.90
27534;DHT22;14973;51.460;7.008;2022-09-09T01:47:57;16.00;99.90
27534;DHT22;14973;51.460;7.008;2022-09-09T01:50:23;16.10;99.90
27534;DHT22;14973;51.460;7.008;2022-09-09T01:52:51;16.00;99.90
27534;DHT22;14973;51.460;7.008;2022-09-09T01:55:18;16.20;99.90
27534;DHT22;14973;51.460;7.008;2022-09-09T02:00:17;16.10;99.90
27534;DHT22;14973;51.460;7.008;2022-09-09T02:03:05;16.10;99.90
27534;DHT22;14973;51.460;7.008;2022-09-09T02:05:38;16.00;99.90
27534;DHT22;14973;51.460;7.008;2022-09-09T02:08:08;16.00;99.90
27534;DHT22;14973;51.460;7.008;2022-09-09T02:10:40;15.90;99.90
27534;DHT22;14973;51.460;7.008;2022-09-09T02:13:11;15.80;99.90
27534;DHT22;14973;51.460;7.008;2022-09-09T02:18:04;15.70;99.90
27534;DHT22;14973;51.460;7.008;2022-09-09T02:20:31;15.80;99.90
27534;DHT22;14973;51.460;7.008;2022-09-09T02:22:58;15.80;99.90
27534;DHT22;14973;51.460;7.008;2022-09-09T02:25:25;15.70;99.90
27534;DHT22;14973;51.460;7.008;2022-09-09T02:27:51;15.70;99.90
27534;DHT22;14973;51.460;7.008;2022-09-09T02:30:17;15.80;99.90
27534;DHT22;14973;51.460;7.008;2022-09-09T02:32:43;15.80;99.90
27534;DHT22;14973;51.460;7.008;2022-09-09T02:35:15;15.90;99.90
27534;DHT22;14973;51.460;7.008;2022-09-09T02:37:42;15.90;99.90
27534;DHT22;14973;51.460;7.008;2022-09-09T02:40:11;16.00;99.90
27534;DHT22;14973;51.460;7.008;2022-09-09T02:42:44;16.00;99.90
27534;DHT22;14973;51.460;7.008;2022-09-09T02:45:10;16.00;99.90
27534;DHT22;14973;51.460;7.008;2022-09-09T02:47:42;16.10;99.90
27534;DHT22;14973;51.460;7.008;2022-09-09T02:55:34;16.30;99.90
27534;DHT22;14973;51.460;7.008;2022-09-09T02:58:02;16.30;99.90
27534;DHT22;14973;51.460;7.008;2022-09-09T03:00:31;16.30;99.90
27534;DHT22;14973;51.460;7.008;2022-09-09T03:02:58;16.40;99.90
27534;DHT22;14973;51.460;7.008;2022-09-09T03:05:24;16.30;99.90
27534;DHT22;14973;51.460;7.008;2022-09-09T03:07:49;16.40;99.90
27534;DHT22;14973;51.460;7.008;2022-09-09T03:10:16;16.30;99.90
27534;DHT22;14973;51.460;7.008;2022-09-09T03:12:42;16.30;99.90
27534;DHT22;14973;51.460;7.008;2022-09-09T03:15:08;16.40;99.90
27534;DHT22;14973;51.460;7.008;2022-09-09T03:17:33;16.40;99.90
27534;DHT22;14973;51.460;7.008;2022-09-09T03:19:59;16.40;99.90
27534;DHT22;14973;51.460;7.008;2022-09-09T03:22:25;16.40;99.90
27534;DHT22;14973;51.460;7.008;2022-09-09T03:24:53;16.40;99.90
27534;DHT22;14973;51.460;7.008;2022-09-09T03:27:18;16.30;99.90
27534;DHT22;14973;51.460;7.008;2022-09-09T03:29:45;16.30;99.90
27534;DHT22;14973;51.460;7.008;2022-09-09T03:32:10;16.20;99.90
27534;DHT22;14973;51.460;7.008;2022-09-09T03:34:36;16.20;99.90
27534;DHT22;14973;51.460;7.008;2022-09-09T03:37:04;16.20;99.90
27534;DHT22;14973;51.460;7.008;2022-09-09T03:39:30;16.10;99.90
27534;DHT22;14973;51.460;7.008;2022-09-09T03:41:56;16.10;99.90
27534;DHT22;14973;51.460;7.008;2022-09-09T03:44:21;16.00;99.90
27534;DHT22;14973;51.460;7.008;2022-09-09T03:46:47;16.00;99.90
27534;DHT22;14973;51.460;7.008;2022-09-09T03:49:13;16.00;99.90
27534;DHT22;14973;51.460;7.008;2022-09-09T03:51:38;16.00;99.90
27534;DHT22;14973;51.460;7.008;2022-09-09T03:54:04;16.10;99.90
27534;DHT22;14973;51.460;7.008;2022-09-09T03:56:33;16.10;99.90
27534;DHT22;14973;51.460;7.008;2022-09-09T03:58:59;16.20;99.90
27534;DHT22;14973;51.460;7.008;2022-09-09T04:01:24;16.10;99.90
27534;DHT22;14973;51.460;7.008;2022-09-09T04:03:50;16.20;99.90
27534;DHT22;14973;51.460;7.008;2022-09-09T04:06:15;16.20;99.90
27534;DHT22;14973;51.460;7.008;2022-09-09T04:08:42;16.20;99.90
27534;DHT22;14973;51.460;7.008;2022-09-09T04:11:08;16.30;99.90
27534;DHT22;14973;51.460;7.008;2022-09-09T04:13:34;16.30;99.90
27534;DHT22;14973;51.460;7.008;2022-09-09T04:16:00;16.20;99.90
27534;DHT22;14973;51.460;7.008;2022-09-09T04:18:26;16.20;99.90
27534;DHT22;14973;51.460;7.008;2022-09-09T04:20:53;16.10;99.90
27534;DHT22;14973;51.460;7.008;2022-09-09T04:23:19;16.20;99.90
27534;DHT22;14973;51.460;7.008;2022-09-09T04:25:49;16.10;99.90
27534;DHT22;14973;51.460;7.008;2022-09-09T04:28:15;16.00;99.90
27534;DHT22;14973;51.460;7.008;2022-09-09T04:30:42;16.10;99.90
27534;DHT22;14973;51.460;7.008;2022-09-09T04:33:08;16.00;99.90
27534;DHT22;14973;51.460;7.008;2022-09-09T04:35:34;15.90;99.90
27534;DHT22;14973;51.460;7.008;2022-09-09T04:38:00;16.00;99.90
27534;DHT22;14973;51.460;7.008;2022-09-09T04:40:28;15.90;99.90
27534;DHT22;14973;51.460;7.008;2022-09-09T04:42:55;15.80;99.90
27534;DHT22;14973;51.460;7.008;2022-09-09T04:45:20;15.90;99.90
27534;DHT22;14973;51.460;7.008;2022-09-09T04:47:46;15.90;99.90
27534;DHT22;14973;51.460;7.008;2022-09-09T04:50:11;16.00;99.90
27534;DHT22;14973;51.460;7.008;2022-09-09T04:52:37;16.00;99.90
27534;DHT22;14973;51.460;7.008;2022-09-09T04:55:03;16.00;99.90
27534;DHT22;14973;51.460;7.008;2022-09-09T04:57:29;16.10;99.90
27534;DHT22;14973;51.460;7.008;2022-09-09T04:59:57;16.20;99.90
27534;DHT22;14973;51.460;7.008;2022-09-09T05:02:22;16.30;99.90
27534;DHT22;14973;51.460;7.008;2022-09-09T05:04:48;16.30;99.90
27534;DHT22;14973;51.460;7.008;2022-09-09T05:07:15;16.30;99.90
27534;DHT22;14973;51.460;7.008;2022-09-09T05:09:40;16.30;99.90
27534;DHT22;14973;51.460;7.008;2022-09-09T05:12:06;16.30;99.90
27534;DHT22;14973;51.460;7.008;2022-09-09T05:14:31;16.40;99.90
27534;DHT22;14973;51.460;7.008;2022-09-09T05:16:57;16.40;99.90
27534;DHT22;14973;51.460;7.008;2022-09-09T05:19:23;16.40;99.90
27534;DHT22;14973;51.460;7.008;2022-09-09T05:21:48;16.40;99.90
27534;DHT22;14973;51.460;7.008;2022-09-09T05:24:15;16.40;99.90
27534;DHT22;14973;51.460;7.008;2022-09-09T05:26:40;16.50;99.90
27534;DHT22;14973;51.460;7.008;2022-09-09T05:29:06;16.50;99.90
27534;DHT22;14973;51.460;7.008;2022-09-09T05:31:32;16.50;99.90
27534;DHT22;14973;51.460;7.008;2022-09-09T05:33:58;16.60;99.90
27534;DHT22;14973;51.460;7.008;2022-09-09T05:36:24;16.60;99.90
27534;DHT22;14973;51.460;7.008;2022-09-09T05:38:50;16.60;99.90
27534;DHT22;14973;51.460;7.008;2022-09-09T05:41:15;16.70;99.90
27534;DHT22;14973;51.460;7.008;2022-09-09T05:43:42;16.70;99.90
27534;DHT22;14973;51.460;7.008;2022-09-09T05:46:15;16.70;99.90
27534;DHT22;14973;51.460;7.008;2022-09-09T05:48:42;16.80;99.90
27534;DHT22;14973;51.460;7.008;2022-09-09T05:51:11;16.80;99.90
27534;DHT22;14973;51.460;7.008;2022-09-09T05:53:43;17.00;99.90
27534;DHT22;14973;51.460;7.008;2022-09-09T05:56:10;17.00;99.90
27534;DHT22;14973;51.460;7.008;2022-09-09T05:58:36;17.10;99.90
27534;DHT22;14973;51.460;7.008;2022-09-09T06:01:03;17.10;99.90
27534;DHT22;14973;51.460;7.008;2022-09-09T06:03:29;17.10;99.90
27534;DHT22;14973;51.460;7.008;2022-09-09T06:06:01;17.10;99.90
27534;DHT22;14973;51.460;7.008;2022-09-09T06:08:30;17.10;99.90
27534;DHT22;14973;51.460;7.008;2022-09-09T06:11:00;17.20;99.90
27534;DHT22;14973;51.460;7.008;2022-09-09T06:13:27;17.20;99.90
27534;DHT22;14973;51.460;7.008;2022-09-09T06:15:52;17.30;99.90
27534;DHT22;14973;51.460;7.008;2022-09-09T06:18:18;17.40;99.90
27534;DHT22;14973;51.460;7.008;2022-09-09T06:21:00;17.60;99.90
27534;DHT22;14973;51.460;7.008;2022-09-09T06:23:26;17.70;99.90
27534;DHT22;14973;51.460;7.008;2022-09-09T06:26:00;17.90;99.90
27534;DHT22;14973;51.460;7.008;2022-09-09T06:28:25;18.10;99.90
27534;DHT22;14973;51.460;7.008;2022-09-09T06:30:56;18.30;99.90
27534;DHT22;14973;51.460;7.008;2022-09-09T06:33:22;18.40;99.90
27534;DHT22;14973;51.460;7.008;2022-09-09T06:35:51;18.40;99.90
27534;DHT22;14973;51.460;7.008;2022-09-09T06:38:18;18.40;99.90
27534;DHT22;14973;51.460;7.008;2022-09-09T06:40:50;18.60;99.90
27534;DHT22;14973;51.460;7.008;2022-09-09T06:43:16;18.70;99.90
27534;DHT22;14973;51.460;7.008;2022-09-09T06:45:42;18.70;99.90
27534;DHT22;14973;51.460;7.008;2022-09-09T06:48:07;18.70;99.90
27534;DHT22;14973;51.460;7.008;2022-09-09T06:50:34;18.80;99.90
27534;DHT22;14973;51.460;7.008;2022-09-09T06:53:00;18.70;99.90
27534;DHT22;14973;51.460;7.008;2022-09-09T06:55:25;18.60;99.90
27534;DHT22;14973;51.460;7.008;2022-09-09T06:57:51;18.50;99.90
27534;DHT22;14973;51.460;7.008;2022-09-09T07:00:17;18.60;99.90
27534;DHT22;14973;51.460;7.008;2022-09-09T07:02:43;18.70;99.90
27534;DHT22;14973;51.460;7.008;2022-09-09T07:05:10;18.70;99.90
27534;DHT22;14973;51.460;7.008;2022-09-09T07:07:35;19.20;99.90
27534;DHT22;14973;51.460;7.008;2022-09-09T07:10:02;19.90;99.90
27534;DHT22;14973;51.460;7.008;2022-09-09T07:12:29;20.60;99.90
27534;DHT22;14973;51.460;7.008;2022-09-09T07:14:54;21.20;99.90
27534;DHT22;14973;51.460;7.008;2022-09-09T07:17:20;21.30;99.90
27534;DHT22;14973;51.460;7.008;2022-09-09T07:19:45;21.00;99.90
27534;DHT22;14973;51.460;7.008;2022-09-09T07:22:12;21.40;99.90
27534;DHT22;14973;51.460;7.008;2022-09-09T07:24:38;22.80;99.90
27534;DHT22;14973;51.460;7.008;2022-09-09T07:27:04;23.80;99.90
27534;DHT22;14973;51.460;7.008;2022-09-09T07:29:30;24.20;99.90
27534;DHT22;14973;51.460;7.008;2022-09-09T07:31:56;25.40;99.90
27534;DHT22;14973;51.460;7.008;2022-09-09T07:34:22;26.30;99.90
27534;DHT22;14973;51.460;7.008;2022-09-09T07:36:47;27.20;99.90
27534;DHT22;14973;51.460;7.008;2022-09-09T07:39:14;27.40;99.90
27534;DHT22;14973;51.460;7.008;2022-09-09T07:41:41;27.70;99.90
27534;DHT22;14973;51.460;7.008;2022-09-09T07:44:08;27.60;99.90
27534;DHT22;14973;51.460;7.008;2022-09-09T07:46:34;27.90;99.90
27534;DHT22;14973;51.460;7.008;2022-09-09T07:49:00;29.00;99.00
27534;DHT22;14973;51.460;7.008;2022-09-09T07:51:31;29.50;97.10
27534;DHT22;14973;51.460;7.008;2022-09-09T07:53:58;29.10;96.30
27534;DHT22;14973;51.460;7.008;2022-09-09T07:56:24;29.40;97.10
27534;DHT22;14973;51.460;7.008;2022-09-09T07:58:50;29.90;95.70
27534;DHT22;14973;51.460;7.008;2022-09-09T08:01:21;30.10;94.90
27534;DHT22;14973;51.460;7.008;2022-09-09T08:03:47;30.70;94.20
27534;DHT22;14973;51.460;7.008;2022-09-09T08:06:17;31.00;93.20
27534;DHT22;14973;51.460;7.008;2022-09-09T08:08:43;30.20;93.30
27534;DHT22;14973;51.460;7.008;2022-09-09T08:11:10;30.60;93.90
27534;DHT22;14973;51.460;7.008;2022-09-09T08:13:36;31.20;92.10
27534;DHT22;14973;51.460;7.008;2022-09-09T08:16:06;30.70;92.20
27534;DHT22;14973;51.460;7.008;2022-09-09T08:18:33;29.70;93.50
27534;DHT22;14973;51.460;7.008;2022-09-09T08:21:04;28.70;94.70
27534;DHT22;14973;51.460;7.008;2022-09-09T08:23:30;27.50;96.70
27534;DHT22;14973;51.460;7.008;2022-09-09T08:26:02;26.40;99.70
27534;DHT22;14973;51.460;7.008;2022-09-09T08:28:27;26.50;99.90
27534;DHT22;14973;51.460;7.008;2022-09-09T08:30:53;27.70;97.90
27534;DHT22;14973;51.460;7.008;2022-09-09T08:33:19;28.00;96.80
27534;DHT22;14973;51.460;7.008;2022-09-09T08:35:51;27.50;97.10
27534;DHT22;14973;51.460;7.008;2022-09-09T08:38:18;27.40;97.20
27534;DHT22;14973;51.460;7.008;2022-09-09T08:40:44;27.20;97.80
27534;DHT22;14973;51.460;7.008;2022-09-09T08:43:14;27.10;98.00
27534;DHT22;14973;51.460;7.008;2022-09-09T08:46:29;27.70;96.80
27534;DHT22;14973;51.460;7.008;2022-09-09T08:51:21;30.00;93.00
27534;DHT22;14973;51.460;7.008;2022-09-09T08:53:50;30.20;92.40
27534;DHT22;14973;51.460;7.008;2022-09-09T08:56:17;30.40;90.60
27534;DHT22;14973;51.460;7.008;2022-09-09T08:58:45;30.20;91.00
27534;DHT22;14973;51.460;7.008;2022-09-09T09:01:17;30.20;90.40
27534;DHT22;14973;51.460;7.008;2022-09-09T09:11:26;32.90;86.40
27534;DHT22;14973;51.460;7.008;2022-09-09T09:13:54;32.50;82.80
27534;DHT22;14973;51.460;7.008;2022-09-09T09:16:27;31.80;83.70
27534;DHT22;14973;51.460;7.008;2022-09-09T09:18:54;31.30;85.60
27534;DHT22;14973;51.460;7.008;2022-09-09T09:21:23;31.60;84.70
27534;DHT22;14973;51.460;7.008;2022-09-09T09:23:59;31.70;83.60
27534;DHT22;14973;51.460;7.008;2022-09-09T09:26:26;30.40;85.30
27534;DHT22;14973;51.460;7.008;2022-09-09T09:28:54;28.50;89.80
27534;DHT22;14973;51.460;7.008;2022-09-09T09:31:21;26.80;91.90
27534;DHT22;14973;51.460;7.008;2022-09-09T09:33:54;25.60;93.50
27534;DHT22;14973;51.460;7.008;2022-09-09T09:36:23;24.40;95.80
27534;DHT22;14973;51.460;7.008;2022-09-09T09:38:56;24.00;97.20
27534;DHT22;14973;51.460;7.008;2022-09-09T09:41:29;24.10;97.40
27534;DHT22;14973;51.460;7.008;2022-09-09T09:43:55;24.50;96.90
27534;DHT22;14973;51.460;7.008;2022-09-09T09:46:21;24.70;96.80
27534;DHT22;14973;51.460;7.008;2022-09-09T09:49:00;24.60;96.80
27534;DHT22;14973;51.460;7.008;2022-09-09T09:51:26;24.00;97.90
27534;DHT22;14973;51.460;7.008;2022-09-09T09:53:52;23.70;98.50
27534;DHT22;14973;51.460;7.008;2022-09-09T09:56:26;23.60;98.80
27534;DHT22;14973;51.460;7.008;2022-09-09T09:58:51;23.40;99.10
27534;DHT22;14973;51.460;7.008;2022-09-09T10:01:28;23.10;99.90
27534;DHT22;14973;51.460;7.008;2022-09-09T10:04:02;22.80;99.90
27534;DHT22;14973;51.460;7.008;2022-09-09T10:06:32;22.60;99.90
27534;DHT22;14973;51.460;7.008;2022-09-09T10:08:58;22.70;99.90
27534;DHT22;14973;51.460;7.008;2022-09-09T10:24:03;21.60;99.90
27534;DHT22;14973;51.460;7.008;2022-09-09T10:26:40;22.20;99.90
27534;DHT22;14973;51.460;7.008;2022-09-09T10:34:39;23.90;99.90
27534;DHT22;14973;51.460;7.008;2022-09-09T10:37:11;24.00;99.80
27534;DHT22;14973;51.460;7.008;2022-09-09T10:39:42;24.00;98.60
27534;DHT22;14973;51.460;7.008;2022-09-09T10:42:14;23.50;98.20
27534;DHT22;14973;51.460;7.008;2022-09-09T10:47:26;23.10;99.00
27534;DHT22;14973;51.460;7.008;2022-09-09T10:54:56;23.00;99.60
27534;DHT22;14973;51.460;7.008;2022-09-09T10:57:43;23.30;99.20
27534;DHT22;14973;51.460;7.008;2022-09-09T11:00:20;23.40;98.80
27534;DHT22;14973;51.460;7.008;2022-09-09T11:02:59;23.20;99.50
27534;DHT22;14973;51.460;7.008;2022-09-09T11:05:28;23.00;99.90
27534;DHT22;14973;51.460;7.008;2022-09-09T11:08:02;22.60;99.90
27534;DHT22;14973;51.460;7.008;2022-09-09T11:10:40;22.40;99.90
27534;DHT22;14973;51.460;7.008;2022-09-09T11:13:10;22.20;99.90
27534;DHT22;14973;51.460;7.008;2022-09-09T11:15:39;22.10;99.90
27534;DHT22;14973;51.460;7.008;2022-09-09T11:18:06;21.70;99.90
27534;DHT22;14973;51.460;7.008;2022-09-09T11:20:36;21.40;99.90
27534;DHT22;14973;51.460;7.008;2022-09-09T11:23:03;21.30;99.90
27534;DHT22;14973;51.460;7.008;2022-09-09T11:25:35;21.30;99.90
27534;DHT22;14973;51.460;7.008;2022-09-09T11:35:48;22.80;99.90
27534;DHT22;14973;51.460;7.008;2022-09-09T11:38:27;22.90;99.90
27534;DHT22;14973;51.460;7.008;2022-09-09T11:40:57;23.00;99.90
27534;DHT22;14973;51.460;7.008;2022-09-09T11:43:31;22.90;99.90
27534;DHT22;14973;51.460;7.008;2022-09-09T11:45:59;22.80;99.90
27534;DHT22;14973;51.460;7.008;2022-09-09T11:48:35;22.90;99.90
27534;DHT22;14973;51.460;7.008;2022-09-09T11:51:03;22.90;99.90
27534;DHT22;14973;51.460;7.008;2022-09-09T11:53:30;23.20;99.90
27534;DHT22;14973;51.460;7.008;2022-09-09T11:56:03;23.20;99.90
27534;DHT22;14973;51.460;7.008;2022-09-09T11:58:31;23.20;99.90
27534;DHT22;14973;51.460;7.008;2022-09-09T12:00:58;22.50;99.90
27534;DHT22;14973;51.460;7.008;2022-09-09T12:08:53;21.60;99.90
27534;DHT22;14973;51.460;7.008;2022-09-09T12:11:25;21.50;99.90
27534;DHT22;14973;51.460;7.008;2022-09-09T12:13:54;21.80;99.90
27534;DHT22;14973;51.460;7.008;2022-09-09T12:16:34;22.00;99.90
27534;DHT22;14973;51.460;7.008;2022-09-09T12:19:03;22.30;99.90
27534;DHT22;14973;51.460;7.008;2022-09-09T12:21:34;22.50;99.90
27534;DHT22;14973;51.460;7.008;2022-09-09T12:24:11;22.50;99.90
27534;DHT22;14973;51.460;7.008;2022-09-09T12:26:37;22.70;99.90
27534;DHT22;14973;51.460;7.008;2022-09-09T12:29:14;22.70;99.90
27534;DHT22;14973;51.460;7.008;2022-09-09T12:37:13;22.30;99.90
27534;DHT22;14973;51.460;7.008;2022-09-09T12:39:44;22.30;99.90
27534;DHT22;14973;51.460;7.008;2022-09-09T12:42:17;22.20;99.90
27534;DHT22;14973;51.460;7.008;2022-09-09T12:50:27;22.50;99.90
27534;DHT22;14973;51.460;7.008;2022-09-09T12:52:55;22.40;99.90
27534;DHT22;14973;51.460;7.008;2022-09-09T12:55:23;22.20;99.90
27534;DHT22;14973;51.460;7.008;2022-09-09T12:57:50;22.00;99.90
27534;DHT22;14973;51.460;7.008;2022-09-09T13:00:23;21.80;99.90
27534;DHT22;14973;51.460;7.008;2022-09-09T13:02:59;21.70;99.90
27534;DHT22;14973;51.460;7.008;2022-09-09T13:05:26;21.80;99.90
27534;DHT22;14973;51.460;7.008;2022-09-09T13:08:00;21.60;99.90
27534;DHT22;14973;51.460;7.008;2022-09-09T13:10:27;21.50;99.90
27534;DHT22;14973;51.460;7.008;2022-09-09T13:12:54;21.50;99.90
27534;DHT22;14973;51.460;7.008;2022-09-09T13:15:21;21.50;99.90
27534;DHT22;14973;51.460;7.008;2022-09-09T13:17:51;21.30;99.90
27534;DHT22;14973;51.460;7.008;2022-09-09T13:20:18;20.80;99.90
27534;DHT22;14973;51.460;7.008;2022-09-09T13:22:44;20.30;99.90
27534;DHT22;14973;51.460;7.008;2022-09-09T13:27:37;19.70;99.90
27534;DHT22;14973;51.460;7.008;2022-09-09T13:35:35;19.80;99.90
27534;DHT22;14973;51.460;7.008;2022-09-09T13:38:08;20.10;99.90
27534;DHT22;14973;51.460;7.008;2022-09-09T13:40:34;20.30;99.90
27534;DHT22;14973;51.460;7.008;2022-09-09T13:43:00;20.50;99.90
27534;DHT22;14973;51.460;7.008;2022-09-09T13:45:27;20.70;99.90
27534;DHT22;14973;51.460;7.008;2022-09-09T13:47:53;20.80;99.90
27534;DHT22;14973;51.460;7.008;2022-09-09T13:50:27;20.90;99.90
27534;DHT22;14973;51.460;7.008;2022-09-09T13:52:54;20.90;99.90
27534;DHT22;14973;51.460;7.008;2022-09-09T13:55:20;21.00;99.90
27534;DHT22;14973;51.460;7.008;2022-09-09T13:57:53;20.90;99.90
27534;DHT22;14973;51.460;7.008;2022-09-09T14:00:18;20.90;99.90
27534;DHT22;14973;51.460;7.008;2022-09-09T14:02:44;20.80;99.90
27534;DHT22;14973;51.460;7.008;2022-09-09T14:05:10;20.80;99.90
27534;DHT22;14973;51.460;7.008;2022-09-09T14:07:37;21.00;99.90
27534;DHT22;14973;51.460;7.008;2022-09-09T14:10:04;21.20;99.90
27534;DHT22;14973;51.460;7.008;2022-09-09T14:12:29;21.30;99.90
27534;DHT22;14973;51.460;7.008;2022-09-09T14:14:55;21.40;99.90
27534;DHT22;14973;51.460;7.008;2022-09-09T14:17:20;21.40;99.90
27534;DHT22;14973;51.460;7.008;2022-09-09T14:19:47;21.50;99.90
27534;DHT22;14973;51.460;7.008;2022-09-09T14:22:13;21.50;99.90
27534;DHT22;14973;51.460;7.008;2022-09-09T14:24:38;21.40;99.90
27534;DHT22;14973;51.460;7.008;2022-09-09T14:27:04;21.40;99.90
27534;DHT22;14973;51.460;7.008;2022-09-09T14:29:29;21.60;99.90
27534;DHT22;14973;51.460;7.008;2022-09-09T14:31:55;21.60;99.90
27534;DHT22;14973;51.460;7.008;2022-09-09T14:34:20;21.30;99.90
27534;DHT22;14973;51.460;7.008;2022-09-09T14:36:46;21.00;99.90
27534;DHT22;14973;51.460;7.008;2022-09-09T14:39:12;21.00;99.90
27534;DHT22;14973;51.460;7.008;2022-09-09T14:41:37;20.90;99.90
27534;DHT22;14973;51.460;7.008;2022-09-09T14:44:03;20.70;99.90
27534;DHT22;14973;51.460;7.008;2022-09-09T14:46:28;20.70;99.90
27534;DHT22;14973;51.460;7.008;2022-09-09T14:48:54;20.60;99.90
27534;DHT22;14973;51.460;7.008;2022-09-09T14:51:21;20.80;99.90
27534;DHT22;14973;51.460;7.008;2022-09-09T14:53:53;20.70;99.90
27534;DHT22;14973;51.460;7.008;2022-09-09T14:56:20;20.70;99.90
27534;DHT22;14973;51.460;7.008;2022-09-09T14:58:47;20.60;99.90
27534;DHT22;14973;51.460;7.008;2022-09-09T15:01:15;20.50;99.90
27534;DHT22;14973;51.460;7.008;2022-09-09T15:03:41;20.20;99.90
27534;DHT22;14973;51.460;7.008;2022-09-09T15:06:07;19.40;99.90
27534;DHT22;14973;51.460;7.008;2022-09-09T15:08:34;18.90;99.90
27534;DHT22;14973;51.460;7.008;2022-09-09T15:11:03;18.40;99.90
27534;DHT22;14973;51.460;7.008;2022-09-09T15:13:29;18.10;99.90
27534;DHT22;14973;51.460;7.008;2022-09-09T15:15:55;17.70;99.90
27534;DHT22;14973;51.460;7.008;2022-09-09T15:18:21;17.50;99.90
27534;DHT22;14973;51.460;7.008;2022-09-09T15:20:46;17.30;99.90
27534;DHT22;14973;51.460;7.008;2022-09-09T15:23:13;17.10;99.90
27534;DHT22;14973;51.460;7.008;2022-09-09T15:25:49;17.10;99.90
27534;DHT22;14973;51.460;7.008;2022-09-09T15:28:15;17.00;99.90
27534;DHT22;14973;51.460;7.008;2022-09-09T15:30:41;17.00;99.90
27534;DHT22;14973;51.460;7.008;2022-09-09T15:33:09;17.00;99.90
27534;DHT22;14973;51.460;7.008;2022-09-09T15:35:35;17.00;99.90
27534;DHT22;14973;51.460;7.008;2022-09-09T15:38:03;17.00;99.90
27534;DHT22;14973;51.460;7.008;2022-09-09T15:40:30;17.00;99.90
27534;DHT22;14973;51.460;7.008;2022-09-09T15:42:57;16.90;99.90
27534;DHT22;14973;51.460;7.008;2022-09-09T15:45:23;16.90;99.90
27534;DHT22;14973;51.460;7.008;2022-09-09T15:47:48;16.90;99.90
27534;DHT22;14973;51.460;7.008;2022-09-09T15:50:14;16.90;99.90
27534;DHT22;14973;51.460;7.008;2022-09-09T15:52:39;16.90;99.90
27534;DHT22;14973;51.460;7.008;2022-09-09T15:55:05;16.80;99.90
27534;DHT22;14973;51.460;7.008;2022-09-09T15:57:31;16.70;99.90
27534;DHT22;14973;51.460;7.008;2022-09-09T15:59:56;16.70;99.90
27534;DHT22;14973;51.460;7.008;2022-09-09T16:02:22;16.80;99.90
27534;DHT22;14973;51.460;7.008;2022-09-09T16:04:47;16.80;99.90
27534;DHT22;14973;51.460;7.008;2022-09-09T16:07:13;16.80;99.90
27534;DHT22;14973;51.460;7.008;2022-09-09T16:09:38;16.90;99.90
27534;DHT22;14973;51.460;7.008;2022-09-09T16:12:05;17.10;99.90
27534;DHT22;14973;51.460;7.008;2022-09-09T16:14:37;17.20;99.90
27534;DHT22;14973;51.460;7.008;2022-09-09T16:17:04;17.40;99.90
27534;DHT22;14973;51.460;7.008;2022-09-09T16:19:30;17.50;99.90
27534;DHT22;14973;51.460;7.008;2022-09-09T16:21:56;17.60;99.90
27534;DHT22;14973;51.460;7.008;2022-09-09T16:24:22;17.60;99.90
27534;DHT22;14973;51.460;7.008;2022-09-09T16:26:49;17.80;99.90
27534;DHT22;14973;51.460;7.008;2022-09-09T16:29:16;18.00;99.90
27534;DHT22;14973;51.460;7.008;2022-09-09T16:31:42;18.10;99.90
27534;DHT22;14973;51.460;7.008;2022-09-09T16:34:08;18.20;99.90
27534;DHT22;14973;51.460;7.008;2022-09-09T16:36:34;18.20;99.90
27534;DHT22;14973;51.460;7.008;2022-09-09T16:39:02;17.90;99.90
27534;DHT22;14973;51.460;7.008;2022-09-09T16:41:28;17.90;99.90
27534;DHT22;14973;51.460;7.008;2022-09-09T16:43:55;17.90;99.90
27534;DHT22;14973;51.460;7.008;2022-09-09T16:46:21;17.80;99.90
27534;DHT22;14973;51.460;7.008;2022-09-09T16:48:47;17.90;99.90
27534;DHT22;14973;51.460;7.008;2022-09-09T16:54:08;17.80;99.90
27534;DHT22;14973;51.460;7.008;2022-09-09T16:56:35;17.90;99.90
27534;DHT22;14973;51.460;7.008;2022-09-09T16:59:07;17.80;99.90
27534;DHT22;14973;51.460;7.008;2022-09-09T17:01:34;17.80;99.90
27534;DHT22;14973;51.460;7.008;2022-09-09T17:04:03;17.80;99.90
27534;DHT22;14973;51.460;7.008;2022-09-09T17:06:31;17.70;99.90
27534;DHT22;14973;51.460;7.008;2022-09-09T17:08:58;17.70;99.90
27534;DHT22;14973;51.460;7.008;2022-09-09T17:11:24;17.50;99.90
27534;DHT22;14973;51.460;7.008;2022-09-09T17:13:50;17.50;99.90
27534;DHT22;14973;51.460;7.008;2022-09-09T17:16:17;17.50;99.90
27534;DHT22;14973;51.460;7.008;2022-09-09T17:18:42;17.40;99.90
27534;DHT22;14973;51.460;7.008;2022-09-09T17:21:12;17.40;99.90
27534;DHT22;14973;51.460;7.008;2022-09-09T17:23:39;17.30;99.90
27534;DHT22;14973;51.460;7.008;2022-09-09T17:26:05;17.20;99.90
27534;DHT22;14973;51.460;7.008;2022-09-09T17:28:33;17.10;99.90